Time;durP1;ratioP1;P1;durP2;ratioP2;P2;SDS_P1;SDS_P2;PMS_P1;PMS_P2;Temp;Humidity;BMP_temperature;BMP_pressure;BME280_temperature;BME280_humidity;BME280_pressure;Samples;Min_cycle;Max_cycle;Signal;HPM_P1;HPM_P2
2021/11/05 00:02:21;;;;;;;8.63;6.70;;;4.80;80.60;;;2.90;89.62;95925.47;4965891;28;20495;-62
2021/11/05 00:04:47;;;;;;;9.52;7.10;;;4.80;80.60;;;2.90;89.44;95933.25;4953718;28;20469;-62
2021/11/05 00:07:13;;;;;;;8.43;6.90;;;4.80;80.70;;;2.91;89.57;95934.09;4968832;28;20070;-62
2021/11/05 00:09:40;;;;;;;13.30;7.03;;;4.80;80.50;;;2.90;89.91;95929.84;4998135;28;20054;-62
2021/11/05 00:12:07;;;;;;;9.82;6.90;;;4.90;80.40;;;2.90;89.72;95927.25;4984734;28;20046;-61
2021/11/05 00:14:32;;;;;;;9.07;6.53;;;4.90;80.30;;;2.89;89.84;95931.63;4969278;28;20043;-62
2021/11/05 00:16:58;;;;;;;7.97;6.65;;;4.90;80.40;;;2.89;89.70;95925.63;4978366;28;20074;-62
2021/11/05 00:19:24;;;;;;;10.32;6.75;;;4.90;80.40;;;2.88;89.73;95927.41;4978751;28;20433;-62
2021/11/05 00:21:50;;;;;;;8.80;6.88;;;4.90;80.30;;;2.87;89.76;95928.38;5001894;28;20783;-61
2021/11/05 00:24:15;;;;;;;8.13;6.45;;;4.90;80.20;;;2.86;89.85;95923.31;4988597;28;20065;-62
2021/11/05 00:26:41;;;;;;;7.68;5.88;;;4.90;80.20;;;2.84;90.11;95928.66;4971474;28;20133;-62
2021/11/05 00:29:07;;;;;;;7.90;6.53;;;4.80;80.30;;;2.82;89.96;95925.41;4985217;28;20031;-61
2021/11/05 00:31:32;;;;;;;8.23;6.47;;;4.80;80.40;;;2.78;89.92;95926.66;4986147;28;20045;-61
2021/11/05 00:33:58;;;;;;;9.45;6.72;;;4.70;80.80;;;2.76;89.82;95929.41;4988565;28;20031;-62
2021/11/05 00:36:24;;;;;;;7.50;6.18;;;4.70;80.80;;;2.74;90.06;95928.72;4995329;28;20035;-62
2021/11/05 00:38:50;;;;;;;11.20;6.95;;;4.60;80.70;;;2.72;89.92;95929.84;5001066;28;20057;-62
2021/11/05 00:41:16;;;;;;;8.82;6.55;;;4.70;80.80;;;2.70;90.10;95936.94;5004762;28;20038;-62
2021/11/05 00:43:42;;;;;;;8.13;6.43;;;4.70;80.90;;;2.67;90.24;95935.44;4971833;28;20038;-63
2021/11/05 00:46:08;;;;;;;9.90;6.47;;;4.60;81.00;;;2.65;90.25;95933.94;4972353;28;20057;-62
2021/11/05 00:48:34;;;;;;;7.75;6.40;;;4.60;80.90;;;2.62;90.09;95935.06;4970429;28;20537;-62
2021/11/05 00:50:59;;;;;;;7.88;6.22;;;4.60;81.20;;;2.60;90.33;95931.78;4968583;28;20026;-62
2021/11/05 00:53:25;;;;;;;8.70;6.60;;;4.60;81.40;;;2.58;90.25;95938.09;4987769;28;20117;-61
2021/11/05 00:55:51;;;;;;;9.25;6.40;;;4.50;81.50;;;2.58;90.43;95935.50;4952482;28;20043;-62
2021/11/05 00:58:17;;;;;;;6.93;5.88;;;4.60;81.30;;;2.58;90.51;95940.69;4981839;28;20038;-62
2021/11/05 01:00:43;;;;;;;7.30;6.20;;;4.60;81.40;;;2.56;90.47;95937.41;4971220;28;20038;-62
2021/11/05 01:03:09;;;;;;;6.60;5.68;;;4.50;81.20;;;2.52;90.52;95941.28;4969689;28;20118;-62
2021/11/05 01:05:36;;;;;;;8.45;6.60;;;4.40;81.70;;;2.50;90.89;95943.19;4967807;28;20126;-62
2021/11/05 01:08:02;;;;;;;9.23;6.63;;;4.40;81.70;;;2.46;90.87;95946.06;4978343;28;20544;-62
2021/11/05 01:10:28;;;;;;;8.32;6.63;;;4.30;82.00;;;2.44;90.69;95937.59;4971066;28;20081;-62
2021/11/05 01:12:54;;;;;;;9.02;6.07;;;4.20;82.10;;;2.43;90.97;95943.75;4987843;28;20486;-62
2021/11/05 01:15:19;;;;;;;8.52;6.65;;;4.20;82.20;;;2.40;90.68;95951.81;4972140;28;20066;-62
2021/11/05 01:17:45;;;;;;;7.75;6.28;;;4.20;82.30;;;2.42;90.97;95955.09;4968902;28;20057;-62
2021/11/05 01:20:15;;;;;;;8.90;6.30;;;4.20;82.30;;;2.41;91.08;95953.44;4991313;28;20092;-62
2021/11/05 01:22:42;;;;;;;8.70;5.90;;;4.30;82.30;;;2.40;90.95;95951.81;4992606;28;20054;-62
2021/11/05 01:25:08;;;;;;;11.77;6.53;;;4.20;82.10;;;2.39;91.01;95952.78;5007340;28;20081;-63
2021/11/05 01:27:33;;;;;;;7.95;5.75;;;4.20;82.20;;;2.40;91.17;95951.00;4974628;28;20034;-62
2021/11/05 01:29:59;;;;;;;7.07;5.63;;;4.30;82.10;;;2.39;90.52;95954.56;4991542;28;20481;-61
2021/11/05 01:32:26;;;;;;;7.45;5.85;;;4.20;82.20;;;2.39;90.81;95950.19;4983980;28;20117;-62
2021/11/05 01:34:52;;;;;;;8.25;5.65;;;4.30;82.20;;;2.41;91.18;95950.84;4988359;28;20035;-62
2021/11/05 01:37:18;;;;;;;7.72;5.47;;;4.30;82.00;;;2.43;90.96;95951.53;4991447;28;20045;-62
2021/11/05 01:39:43;;;;;;;8.90;5.68;;;4.30;82.10;;;2.44;91.34;95947.97;4958878;28;20082;-62
2021/11/05 01:42:09;;;;;;;7.55;5.90;;;4.30;81.70;;;2.42;90.72;95952.50;4973788;28;20177;-62
2021/11/05 01:44:35;;;;;;;7.18;5.90;;;4.30;81.90;;;2.44;91.13;95952.34;4974487;28;20128;-63
2021/11/05 01:47:01;;;;;;;7.78;5.53;;;4.30;82.00;;;2.43;91.15;95951.53;4940214;28;20034;-62
2021/11/05 01:49:27;;;;;;;7.18;6.13;;;4.30;81.90;;;2.43;91.20;95956.72;4985874;28;20133;-62
2021/11/05 01:51:55;;;;;;;8.73;6.30;;;4.40;81.90;;;2.45;90.65;95962.59;4991005;28;20038;-62
2021/11/05 01:54:21;;;;;;;7.72;5.63;;;4.40;81.70;;;2.44;90.73;95962.72;4975537;28;20041;-62
2021/11/05 01:56:47;;;;;;;7.05;5.85;;;4.40;81.80;;;2.44;91.23;95958.34;4974235;28;20054;-62
2021/11/05 01:59:26;;;;;;;9.73;6.70;;;4.40;81.60;;;2.44;91.67;95966.16;4963318;28;20538;-62
2021/11/05 02:01:53;;;;;;;8.98;6.47;;;4.40;81.50;;;2.42;90.90;95965.47;4986291;28;20383;-62
2021/11/05 02:04:19;;;;;;;12.40;7.18;;;4.40;81.50;;;2.40;91.25;95962.19;4974770;28;20042;-62
2021/11/05 02:06:46;;;;;;;10.60;8.10;;;4.40;81.70;;;2.38;90.87;95961.53;4988929;28;20421;-62
2021/11/05 02:09:19;;;;;;;10.32;6.95;;;4.30;81.70;;;2.36;91.23;95971.22;4989988;28;20034;-62
2021/11/05 02:11:45;;;;;;;8.82;6.40;;;4.30;81.80;;;2.33;91.06;95966.34;4972600;28;20046;-63
2021/11/05 02:14:16;;;;;;;9.10;6.80;;;4.30;81.90;;;2.30;91.71;95966.63;4986835;28;20045;-62
2021/11/05 02:16:43;;;;;;;8.85;7.47;;;4.20;81.80;;;2.28;91.18;95960.75;4989337;28;20101;-62
2021/11/05 02:19:14;;;;;;;9.73;6.75;;;4.20;82.30;;;2.26;91.40;95964.41;4981298;28;20092;-62
2021/11/05 02:21:41;;;;;;;10.70;7.03;;;4.10;82.30;;;2.22;91.34;95963.88;4989700;28;20030;-61
2021/11/05 02:24:06;;;;;;;9.88;6.78;;;4.10;82.50;;;2.24;91.35;95972.34;4990782;28;20499;-61
2021/11/05 02:26:33;;;;;;;9.18;7.28;;;4.10;82.20;;;2.24;91.44;95964.56;4973563;28;20045;-62
2021/11/05 02:28:58;;;;;;;9.07;7.07;;;4.10;82.10;;;2.21;91.64;95961.44;4979409;28;20565;-62
2021/11/05 02:31:24;;;;;;;9.10;6.80;;;4.10;82.10;;;2.21;91.54;95964.84;4974968;28;20043;-62
2021/11/05 02:33:50;;;;;;;8.20;6.97;;;4.10;82.00;;;2.18;91.58;95977.28;4987620;28;20394;-61
2021/11/05 02:36:16;;;;;;;8.90;6.97;;;4.10;82.30;;;2.18;91.71;95979.88;4988194;28;20031;-62
2021/11/05 02:38:41;;;;;;;8.68;7.30;;;4.10;82.20;;;2.17;91.14;95981.66;4990008;28;20185;-62
2021/11/05 02:41:07;;;;;;;8.65;6.85;;;4.10;82.30;;;2.18;91.73;95983.28;4982585;28;20023;-62
2021/11/05 02:43:33;;;;;;;9.02;7.88;;;4.10;82.30;;;2.18;91.59;95985.91;4988470;28;20684;-62
2021/11/05 02:45:59;;;;;;;8.73;7.25;;;4.10;82.30;;;2.19;91.69;95986.72;4988991;28;20473;-62
2021/11/05 02:48:27;;;;;;;10.98;8.18;;;4.10;82.00;;;2.18;91.45;95979.88;4957091;28;20430;-62
2021/11/05 02:50:53;;;;;;;9.68;7.25;;;4.10;82.10;;;2.18;91.63;95985.91;4987443;28;20034;-61
2021/11/05 02:53:19;;;;;;;8.88;7.18;;;4.10;82.00;;;2.17;91.20;95981.66;4984345;28;20409;-62
2021/11/05 02:55:45;;;;;;;10.50;7.47;;;4.10;82.00;;;2.16;91.71;95980.03;4973660;28;20108;-62
2021/11/05 02:58:10;;;;;;;9.30;7.35;;;4.10;82.20;;;2.18;91.48;95983.28;4958000;28;20455;-61
2021/11/05 03:00:36;;;;;;;8.45;7.38;;;4.10;82.10;;;2.14;91.59;95981.94;4980958;28;20386;-62
2021/11/05 03:03:02;;;;;;;9.60;8.00;;;4.00;82.30;;;2.14;91.96;95985.34;4982313;28;20121;-62
2021/11/05 03:05:28;;;;;;;9.82;8.02;;;4.00;82.30;;;2.12;91.24;95986.47;4989393;28;20414;-62
2021/11/05 03:07:54;;;;;;;10.07;7.95;;;3.90;82.20;;;2.07;91.75;95981.69;4971555;28;20038;-62
2021/11/05 03:10:19;;;;;;;8.68;7.05;;;4.00;82.30;;;2.08;91.50;95992.88;4989520;28;20169;-62
2021/11/05 03:12:45;;;;;;;13.15;8.32;;;3.90;82.30;;;2.05;91.83;95998.34;4989094;28;20050;-61
2021/11/05 03:15:11;;;;;;;11.60;7.53;;;3.80;82.50;;;2.06;91.66;96000.00;4973443;28;20421;-64
2021/11/05 03:17:38;;;;;;;10.13;8.00;;;3.90;82.60;;;2.07;91.55;96002.44;4973525;28;20121;-64
2021/11/05 03:20:06;;;;;;;10.68;8.20;;;4.00;82.40;;;2.09;91.43;96004.91;4973480;28;20117;-64
2021/11/05 03:22:31;;;;;;;8.90;7.68;;;4.10;82.40;;;2.11;92.18;96002.97;4960416;28;20057;-64
2021/11/05 03:24:57;;;;;;;9.07;7.80;;;4.10;82.30;;;2.12;91.82;96010.63;4989801;28;20046;-64
2021/11/05 03:27:23;;;;;;;9.95;7.72;;;4.10;82.20;;;2.12;91.80;96009.81;4989771;28;20030;-64
2021/11/05 03:29:49;;;;;;;9.65;7.72;;;4.10;82.00;;;2.12;91.63;96012.41;4972878;28;20518;-64
2021/11/05 03:32:15;;;;;;;8.35;7.35;;;4.10;82.00;;;2.12;91.39;96015.00;4973179;28;20057;-65
2021/11/05 03:34:40;;;;;;;9.50;7.38;;;4.10;82.20;;;2.12;91.67;96015.00;4974215;28;20679;-64
2021/11/05 03:37:06;;;;;;;10.52;7.95;;;4.10;82.20;;;2.12;91.98;96015.81;4989305;28;20031;-65
2021/11/05 03:39:32;;;;;;;8.85;7.10;;;4.00;82.10;;;2.12;91.95;96021.00;4974312;28;20506;-64
2021/11/05 03:41:58;;;;;;;10.63;7.43;;;4.10;81.90;;;2.13;91.63;96024.41;4972799;28;20124;-64
2021/11/05 03:44:24;;;;;;;8.65;6.93;;;4.10;82.10;;;2.13;91.82;96021.81;4972837;28;20508;-65
2021/11/05 03:46:50;;;;;;;9.35;7.57;;;4.10;82.00;;;2.17;91.47;96033.56;5005352;28;20042;-65
2021/11/05 03:49:16;;;;;;;9.10;7.40;;;4.10;81.90;;;2.20;91.88;96037.66;4999239;28;20026;-64
2021/11/05 03:51:42;;;;;;;9.13;7.40;;;4.20;81.60;;;2.21;91.76;96034.09;4973256;28;20038;-64
2021/11/05 03:54:08;;;;;;;9.30;7.50;;;4.20;81.80;;;2.23;91.92;96038.19;4973061;28;20038;-65
2021/11/05 03:56:34;;;;;;;9.63;7.43;;;4.20;81.70;;;2.25;91.71;96046.66;4956079;28;20120;-65
2021/11/05 03:59:00;;;;;;;9.45;7.75;;;4.20;81.60;;;2.27;91.38;96047.34;4987502;28;20449;-64
2021/11/05 04:01:26;;;;;;;8.73;7.32;;;4.30;81.70;;;2.27;91.45;96042.16;4977678;28;20039;-64
2021/11/05 04:03:52;;;;;;;11.77;8.00;;;4.30;81.70;;;2.31;91.47;96056.50;5005157;28;20561;-65
2021/11/05 04:06:19;;;;;;;11.15;8.15;;;4.30;81.70;;;2.34;91.66;96061.41;4969502;28;20625;-65
2021/11/05 04:08:45;;;;;;;12.50;9.23;;;4.40;81.70;;;2.38;91.69;96062.75;4987294;28;20121;-64
2021/11/05 04:11:11;;;;;;;10.93;8.27;;;4.50;81.50;;;2.40;91.56;96065.22;4939300;28;20110;-64
2021/11/05 04:13:37;;;;;;;10.65;7.95;;;4.50;81.50;;;2.42;91.85;96066.72;4978885;28;20047;-64
2021/11/05 04:16:03;;;;;;;9.50;8.02;;;4.40;81.30;;;2.44;91.56;96066.56;4968889;28;20055;-64
2021/11/05 04:18:29;;;;;;;9.30;7.85;;;4.50;81.50;;;2.47;91.94;96077.47;4998301;28;20121;-64
2021/11/05 04:20:54;;;;;;;8.48;7.18;;;4.60;81.40;;;2.48;91.58;96075.72;4955772;28;20081;-64
2021/11/05 04:23:34;;;;;;;11.40;7.60;;;4.50;81.20;;;2.51;91.80;96072.03;4936547;28;20050;-64
2021/11/05 04:26:00;;;;;;;9.48;7.38;;;4.60;81.20;;;2.52;91.47;96076.28;4972157;28;20105;-63
2021/11/05 04:28:25;;;;;;;9.95;7.75;;;4.50;81.10;;;2.54;91.23;96076.94;4982425;28;20346;-64
2021/11/05 04:30:52;;;;;;;8.75;7.68;;;4.50;81.20;;;2.55;91.27;96083.78;4984466;28;20067;-64
2021/11/05 04:33:17;;;;;;;10.45;7.85;;;4.50;81.10;;;2.55;91.38;96076.81;4984494;28;20055;-64
2021/11/05 04:35:43;;;;;;;9.07;7.90;;;4.60;81.30;;;2.56;91.28;96075.03;5003664;28;20070;-64
2021/11/05 04:38:09;;;;;;;10.52;7.68;;;4.60;81.30;;;2.57;91.70;96082.69;4953466;28;20100;-64
2021/11/05 04:40:35;;;;;;;8.93;7.47;;;4.60;81.10;;;2.57;91.62;96081.84;4986398;28;20129;-64
2021/11/05 04:43:01;;;;;;;9.70;7.80;;;4.60;81.10;;;2.58;91.32;96083.50;4971471;28;20042;-64
2021/11/05 04:45:27;;;;;;;8.70;7.72;;;4.60;80.90;;;2.55;91.32;96086.38;4968401;28;20042;-64
2021/11/05 04:47:53;;;;;;;9.40;7.25;;;4.60;81.20;;;2.55;91.09;96088.97;4984949;28;20046;-64
2021/11/05 04:50:18;;;;;;;9.00;7.90;;;4.60;81.10;;;2.56;91.12;96095.81;4987137;28;20502;-64
2021/11/05 04:52:47;;;;;;;9.00;7.63;;;4.60;81.10;;;2.54;91.20;96098.53;4983345;28;20042;-64
2021/11/05 04:55:13;;;;;;;9.60;7.78;;;4.60;81.20;;;2.53;91.59;96102.09;4953190;28;20097;-64
2021/11/05 04:57:39;;;;;;;9.13;8.10;;;4.60;81.30;;;2.53;91.72;96099.50;4969675;28;20038;-64
2021/11/05 05:00:06;;;;;;;9.93;8.15;;;4.60;81.40;;;2.54;91.44;96108.09;4989980;28;20049;-65
2021/11/05 05:02:31;;;;;;;10.02;8.10;;;4.60;81.30;;;2.53;91.60;96104.69;4957904;28;20049;-64
2021/11/05 05:04:57;;;;;;;10.15;8.88;;;4.60;81.30;;;2.54;91.84;96102.91;5004078;28;20129;-64
2021/11/05 05:07:23;;;;;;;10.60;8.52;;;4.60;81.50;;;2.52;91.76;96103.06;4982975;28;20457;-64
2021/11/05 05:09:49;;;;;;;10.38;7.38;;;4.50;81.50;;;2.52;91.78;96104.84;4987100;28;20069;-64
2021/11/05 05:12:14;;;;;;;9.13;7.80;;;4.50;81.70;;;2.51;91.74;96105.78;4990830;28;20057;-64
2021/11/05 05:14:40;;;;;;;10.60;8.38;;;4.60;81.70;;;2.50;91.99;96111.94;4957608;28;20098;-64
2021/11/05 05:17:06;;;;;;;9.57;7.78;;;4.50;81.80;;;2.50;91.96;96106.75;4990679;28;20092;-64
2021/11/05 05:19:32;;;;;;;10.32;7.97;;;4.60;81.80;;;2.50;92.11;96111.94;4990283;28;20130;-64
2021/11/05 05:21:58;;;;;;;11.40;8.70;;;4.60;81.90;;;2.50;92.35;96117.13;4997952;28;20034;-64
2021/11/05 05:24:23;;;;;;;21.55;16.35;;;4.50;82.00;;;2.50;92.00;96115.34;4981758;28;20108;-64
2021/11/05 05:26:49;;;;;;;12.98;10.70;;;4.60;82.00;;;2.51;91.95;96123.97;4990708;28;20042;-64
2021/11/05 05:29:15;;;;;;;13.10;9.55;;;4.60;82.00;;;2.53;92.43;96127.25;4986789;28;20034;-64
2021/11/05 05:31:41;;;;;;;12.85;9.88;;;4.60;82.00;;;2.54;92.14;96123.69;4990457;28;20043;-64
2021/11/05 05:34:06;;;;;;;26.25;17.08;;;4.60;81.90;;;2.54;92.47;96123.69;4990227;28;20058;-64
2021/11/05 05:36:32;;;;;;;19.95;14.50;;;4.70;81.90;;;2.54;92.28;96128.88;4973009;28;20121;-64
2021/11/05 05:38:58;;;;;;;15.15;11.05;;;4.70;81.90;;;2.56;92.75;96132.97;4973740;28;20042;-64
2021/11/05 05:41:24;;;;;;;13.23;8.68;;;4.70;81.90;;;2.56;92.51;96143.34;4974329;28;20112;-64
2021/11/05 05:43:49;;;;;;;12.07;9.02;;;4.60;81.70;;;2.57;92.54;96149.38;4986765;28;20030;-64
2021/11/05 05:46:15;;;;;;;11.68;8.77;;;4.70;81.90;;;2.57;92.22;96150.19;4990167;28;20031;-64
2021/11/05 05:48:41;;;;;;;10.70;8.82;;;4.70;81.70;;;2.58;92.55;96156.19;4989281;28;20147;-64
2021/11/05 05:51:06;;;;;;;20.58;15.93;;;4.70;81.90;;;2.59;92.92;96157.84;4989946;28;20023;-65
2021/11/05 05:53:32;;;;;;;48.83;34.05;;;4.70;82.20;;;2.61;93.14;96161.94;4987397;28;20062;-65
2021/11/05 05:55:58;;;;;;;58.33;40.75;;;4.80;82.30;;;2.63;92.67;96170.41;4974077;28;20093;-65
2021/11/05 05:58:24;;;;;;;34.38;21.13;;;4.80;82.10;;;2.64;92.78;96173.81;4973544;28;20042;-66
2021/11/05 06:00:50;;;;;;;35.95;25.67;;;4.80;81.90;;;2.65;93.01;96178.06;4988534;28;20366;-66
2021/11/05 06:03:22;;;;;;;28.25;21.38;;;4.90;81.60;;;2.64;92.76;96179.00;4954476;28;20511;-65
2021/11/05 06:05:48;;;;;;;19.88;14.57;;;4.80;81.60;;;2.68;93.40;96182.97;4984743;28;20537;-67
2021/11/05 06:08:13;;;;;;;44.47;28.73;;;4.90;82.30;;;2.72;93.87;96194.75;4954629;28;20061;-73
2021/11/05 06:10:39;;;;;;;26.83;20.92;;;4.90;82.70;;;2.75;93.67;96194.47;4971028;28;20045;-73
2021/11/05 06:13:05;;;;;;;30.48;23.15;;;4.90;82.60;;;2.79;93.56;96201.00;4957191;28;20030;-65
2021/11/05 06:15:31;;;;;;;18.23;13.63;;;4.90;81.80;;;2.80;92.83;96202.66;4970816;28;20031;-74
2021/11/05 06:17:57;;;;;;;11.93;10.23;;;4.90;81.40;;;2.83;92.80;96201.56;4999709;28;20039;-74
2021/11/05 06:20:22;;;;;;;9.30;7.95;;;5.00;81.40;;;2.86;92.49;96202.09;5002261;28;20568;-70
2021/11/05 06:22:48;;;;;;;8.85;7.80;;;5.00;81.00;;;2.89;92.34;96206.19;4972876;28;20578;-73
2021/11/05 06:25:14;;;;;;;10.05;8.23;;;5.00;80.80;;;2.89;92.34;96212.19;4989451;28;20074;-65
2021/11/05 06:27:40;;;;;;;10.20;8.73;;;5.00;80.40;;;2.89;92.10;96212.19;4973332;28;20097;-70
2021/11/05 06:30:07;;;;;;;11.98;8.25;;;5.00;80.60;;;2.90;92.22;96213.84;4989173;28;20133;-72
2021/11/05 06:32:33;;;;;;;9.85;8.15;;;5.10;80.70;;;2.92;91.79;96227.50;4987511;28;20533;-71
2021/11/05 06:34:59;;;;;;;9.63;8.48;;;5.00;80.40;;;2.89;91.74;96224.38;4989408;28;20053;-68
2021/11/05 06:37:25;;;;;;;9.00;7.82;;;4.90;80.40;;;2.87;91.23;96234.91;5005598;28;20436;-71
2021/11/05 06:39:50;;;;;;;10.00;8.43;;;4.90;80.40;;;2.85;91.69;96236.81;4972426;28;20030;-67
2021/11/05 06:42:20;;;;;;;10.23;7.85;;;4.80;80.50;;;2.83;91.10;96251.72;4972924;28;20038;-66
2021/11/05 06:44:48;;;;;;;9.23;7.88;;;4.80;80.50;;;2.82;91.28;96249.25;4988793;28;20035;-63
2021/11/05 06:47:14;;;;;;;10.15;7.82;;;4.80;80.70;;;2.80;91.44;96256.38;4987002;28;20031;-70
2021/11/05 06:49:41;;;;;;;8.70;7.80;;;4.80;80.70;;;2.81;91.11;96258.84;4963086;28;20042;-69
2021/11/05 06:52:06;;;;;;;8.77;7.70;;;4.90;80.50;;;2.83;91.59;96254.31;4986836;28;20033;-70
2021/11/05 06:54:34;;;;;;;9.27;7.53;;;5.00;80.50;;;2.90;91.66;96259.78;4988036;28;20114;-72
2021/11/05 06:57:00;;;;;;;9.60;7.63;;;5.10;79.80;;;2.94;91.43;96261.13;5004729;28;20041;-70
2021/11/05 06:59:26;;;;;;;9.95;7.93;;;5.20;79.80;;;3.00;91.79;96265.81;4969110;28;20058;-72
2021/11/05 07:01:52;;;;;;;8.85;7.60;;;5.30;79.60;;;3.08;91.02;96279.75;4972535;28;20034;-72
2021/11/05 07:04:17;;;;;;;7.45;6.40;;;5.40;79.20;;;3.17;90.62;96272.06;4952632;28;20031;-66
2021/11/05 07:06:46;;;;;;;8.25;6.70;;;5.60;78.50;;;3.25;90.67;96277.41;4975268;28;20044;-65
2021/11/05 07:09:13;;;;;;;7.50;6.70;;;5.70;77.80;;;3.36;90.66;96282.44;4956326;28;20105;-69
2021/11/05 07:11:39;;;;;;;7.60;6.80;;;5.90;77.30;;;3.49;90.27;96292.53;4971938;28;20347;-66
2021/11/05 07:14:05;;;;;;;12.95;8.82;;;6.10;76.60;;;3.59;89.85;96288.94;4972236;28;20022;-75
2021/11/05 07:16:33;;;;;;;11.05;8.38;;;6.30;75.40;;;3.69;89.37;96292.34;5003733;28;20077;-72
2021/11/05 07:18:59;;;;;;;10.13;7.65;;;6.40;75.10;;;3.82;88.98;96299.00;4952282;28;20027;-73
2021/11/05 07:21:25;;;;;;;7.95;6.95;;;6.60;74.50;;;3.97;89.19;96302.81;4984812;28;20077;-71
2021/11/05 07:23:50;;;;;;;7.30;6.53;;;6.80;73.60;;;4.13;88.37;96303.00;4955822;28;20031;-72
2021/11/05 07:26:16;;;;;;;8.10;6.90;;;7.00;73.10;;;4.27;87.92;96310.31;4971846;28;20046;-67
2021/11/05 07:28:42;;;;;;;8.73;6.50;;;7.10;72.80;;;4.45;88.17;96302.56;4987130;28;20113;-65
2021/11/05 07:31:08;;;;;;;8.02;6.95;;;7.40;72.30;;;4.61;87.80;96307.97;5004209;28;20511;-69
2021/11/05 07:33:34;;;;;;;7.95;7.15;;;7.60;71.60;;;4.79;87.08;96305.38;4971478;28;20062;-63
2021/11/05 07:36:00;;;;;;;8.18;6.63;;;7.80;71.40;;;4.96;86.44;96321.16;4987858;28;20046;-72
2021/11/05 07:38:26;;;;;;;7.20;6.50;;;8.00;70.50;;;5.09;85.94;96326.81;4954852;28;20036;-72
2021/11/05 07:40:51;;;;;;;7.38;6.55;;;8.10;70.40;;;5.24;86.23;96320.13;4969863;28;20042;-71
2021/11/05 07:43:17;;;;;;;7.03;6.13;;;8.30;69.70;;;5.39;85.06;96334.25;4968735;28;20379;-72
2021/11/05 07:45:43;;;;;;;6.40;5.80;;;8.40;69.10;;;5.53;85.11;96333.72;4987316;28;20038;-66
2021/11/05 07:48:08;;;;;;;6.85;5.97;;;8.60;68.40;;;5.68;83.97;96334.00;5002667;28;20157;-70
2021/11/05 07:50:34;;;;;;;9.88;6.78;;;8.70;68.10;;;5.87;83.73;96343.41;4969494;28;20053;-71
2021/11/05 07:53:02;;;;;;;7.05;6.35;;;9.10;67.80;;;6.06;83.65;96351.06;4984588;28;20121;-65
2021/11/05 07:55:30;;;;;;;6.80;5.93;;;9.00;67.30;;;6.20;82.73;96354.91;4987382;28;20042;-64
2021/11/05 07:57:56;;;;;;;6.57;5.93;;;9.10;67.00;;;6.36;82.77;96354.16;5003190;28;20467;-66
2021/11/05 08:00:23;;;;;;;7.07;6.05;;;9.40;66.20;;;6.58;82.44;96364.06;4955340;28;20027;-66
2021/11/05 08:02:48;;;;;;;8.23;6.00;;;9.80;66.10;;;6.80;82.04;96361.84;4954096;28;20161;-67
2021/11/05 08:05:14;;;;;;;6.82;5.55;;;10.00;65.10;;;6.99;81.54;96357.13;4971457;28;20061;-65
2021/11/05 08:07:40;;;;;;;7.07;5.68;;;10.10;64.90;;;7.13;80.79;96367.97;4986421;28;20489;-67
2021/11/05 08:10:08;;;;;;;6.97;5.93;;;10.20;64.50;;;7.26;80.81;96368.31;4984429;28;20069;-70
2021/11/05 08:12:33;;;;;;;6.18;5.55;;;10.20;64.50;;;7.42;80.10;96372.75;4971216;28;20038;-68
2021/11/05 08:15:00;;;;;;;7.28;5.50;;;10.50;64.60;;;7.56;80.00;96375.53;4969145;28;20544;-70
2021/11/05 08:17:26;;;;;;;6.93;5.70;;;10.70;63.60;;;7.66;79.85;96381.41;4953008;28;20118;-67
2021/11/05 08:19:51;;;;;;;8.95;7.55;;;10.50;64.50;;;7.73;79.49;96386.84;4984895;28;20080;-65
2021/11/05 08:22:19;;;;;;;7.15;6.45;;;10.50;64.80;;;7.79;78.73;96386.19;4971081;28;20823;-66
2021/11/05 08:24:45;;;;;;;7.75;6.95;;;10.60;63.40;;;7.91;78.88;96390.06;4969672;28;20050;-67
2021/11/05 08:27:11;;;;;;;6.80;5.80;;;11.10;62.40;;;8.04;78.04;96399.25;4971549;28;20027;-73
2021/11/05 08:29:37;;;;;;;6.93;6.22;;;11.50;61.20;;;8.20;78.17;96394.00;4984474;28;20393;-74
2021/11/05 08:32:03;;;;;;;7.07;6.20;;;12.00;60.00;;;8.37;78.07;96403.47;4967542;28;20497;-72
2021/11/05 08:34:29;;;;;;;6.07;5.47;;;12.00;59.50;;;8.48;76.51;96413.59;4972942;28;20050;-73
2021/11/05 08:36:54;;;;;;;6.75;6.05;;;11.90;59.00;;;8.59;76.42;96410.63;4985964;28;20030;-72
2021/11/05 08:39:20;;;;;;;7.93;6.03;;;11.80;59.70;;;8.65;76.54;96418.81;5006876;28;20065;-72
2021/11/05 08:41:46;;;;;;;6.97;6.28;;;11.60;59.80;;;8.65;75.69;96424.06;4991048;28;20050;-73
2021/11/05 08:44:12;;;;;;;8.32;7.18;;;11.40;60.10;;;8.59;74.97;96436.84;4975053;28;20045;-72
2021/11/05 08:46:38;;;;;;;7.13;6.25;;;11.20;60.90;;;8.62;75.17;96440.94;4940684;28;20050;-72
2021/11/05 08:49:12;;;;;;;6.82;6.13;;;11.90;59.00;;;8.80;73.18;96438.09;5001428;28;20035;-73
2021/11/05 08:51:41;;;;;;;7.05;6.30;;;12.60;56.40;;;9.00;74.27;96443.75;4990373;28;20038;-66
2021/11/05 08:54:07;;;;;;;6.75;5.95;;;13.10;55.20;;;9.15;74.59;96442.06;4971599;28;20300;-73
2021/11/05 08:56:33;;;;;;;6.85;6.15;;;13.10;54.30;;;9.32;74.39;96450.66;4979693;28;20530;-75
2021/11/05 08:58:59;;;;;;;10.55;6.20;;;13.90;53.20;;;9.52;74.28;96438.75;5001402;28;20450;-72
2021/11/05 09:01:25;;;;;;;5.95;5.35;;;14.30;52.00;;;9.74;73.72;96448.44;4974663;28;20037;-76
2021/11/05 09:03:51;;;;;;;8.07;5.90;;;15.00;50.30;;;9.91;72.92;96446.50;4973682;28;20031;-69
2021/11/05 09:06:16;;;;;;;7.68;6.25;;;15.10;48.90;;;10.17;71.53;96459.25;4989467;28;20449;-75
2021/11/05 09:08:44;;;;;;;5.75;5.10;;;15.80;46.90;;;10.42;71.34;96462.53;4972786;28;20781;-74
2021/11/05 09:11:09;;;;;;;6.82;4.97;;;16.10;46.80;;;10.66;71.18;96464.13;4990428;28;20125;-74
2021/11/05 09:13:35;;;;;;;5.93;5.40;;;16.30;45.60;;;10.87;70.14;96460.78;4975095;28;20094;-76
2021/11/05 09:16:03;;;;;;;5.93;4.78;;;16.20;45.80;;;11.11;70.44;96462.28;4974505;28;20030;-77
2021/11/05 09:18:29;;;;;;;6.35;4.80;;;16.40;46.50;;;11.32;69.98;96459.72;4986772;28;20045;-75
2021/11/05 09:20:54;;;;;;;5.78;4.80;;;16.00;46.60;;;11.41;69.50;96471.78;4975477;28;20038;-74
2021/11/05 09:23:23;;;;;;;6.13;4.60;;;15.40;48.50;;;11.52;68.51;96470.47;4973898;28;20097;-74
2021/11/05 09:25:49;;;;;;;7.93;4.80;;;15.10;47.90;;;11.43;68.01;96475.03;4958211;28;20116;-61
2021/11/05 09:28:14;;;;;;;6.65;5.70;;;14.50;49.80;;;11.34;67.47;96478.78;5006155;28;20065;-68
2021/11/05 09:30:40;;;;;;;5.13;4.63;;;14.20;50.90;;;11.20;67.38;96483.06;4972976;28;20041;-71
2021/11/05 09:33:06;;;;;;;5.38;4.70;;;13.70;51.10;;;10.96;67.04;96486.81;5006816;28;20060;-70
2021/11/05 09:35:32;;;;;;;6.30;4.60;;;13.10;53.40;;;10.72;66.58;96494.97;4973430;28;20054;-71
2021/11/05 09:37:57;;;;;;;5.43;4.90;;;12.80;55.00;;;10.52;67.30;96499.09;4958361;28;20026;-71
2021/11/05 09:40:25;;;;;;;4.47;4.07;;;12.60;55.60;;;10.29;66.82;96502.56;4956074;28;20128;-70
2021/11/05 09:42:52;;;;;;;4.10;2.90;;;12.30;56.50;;;10.09;67.87;96499.56;4970485;28;20118;-70
2021/11/05 09:45:18;;;;;;;3.47;2.72;;;12.00;55.60;;;9.91;66.47;96506.13;4970306;28;20094;-70
2021/11/05 09:47:44;;;;;;;4.30;2.58;;;11.80;56.00;;;9.79;67.75;96509.16;4970446;28;20042;-68
2021/11/05 09:50:14;;;;;;;4.97;2.88;;;12.10;56.50;;;9.85;67.62;96506.81;4953977;28;20046;-70
2021/11/05 09:52:40;;;;;;;3.63;2.83;;;12.40;56.10;;;9.93;67.16;96504.13;4973536;28;20034;-70
2021/11/05 09:55:06;;;;;;;3.10;2.72;;;12.70;55.70;;;10.04;67.47;96506.38;4989951;28;20042;-70
2021/11/05 09:57:32;;;;;;;4.28;2.40;;;12.80;55.00;;;10.11;68.11;96507.28;4940345;28;20030;-71
2021/11/05 09:59:58;;;;;;;3.65;3.08;;;12.90;54.80;;;10.17;67.13;96511.00;4989685;28;20045;-70
2021/11/05 10:02:24;;;;;;;4.15;3.22;;;12.60;54.70;;;10.20;67.43;96521.22;4957319;28;20050;-69
2021/11/05 10:04:51;;;;;;;4.13;3.30;;;12.60;55.00;;;10.20;66.48;96515.94;4988470;28;20038;-68
2021/11/05 10:07:17;;;;;;;6.70;3.50;;;12.50;55.90;;;10.20;67.14;96522.03;4989879;28;20552;-70
2021/11/05 10:09:52;;;;;;;5.53;3.10;;;12.70;56.40;;;10.19;66.83;96520.38;4953361;28;20043;-73
2021/11/05 10:12:21;;;;;;;5.72;3.60;;;12.50;55.80;;;10.09;66.38;96520.59;4970392;28;20048;-69
2021/11/05 10:14:55;;;;;;;4.03;2.92;;;12.10;55.50;;;9.95;64.83;96523.16;4937939;28;20689;-74
2021/11/05 10:17:21;;;;;;;4.22;3.40;;;11.80;56.30;;;9.87;67.52;96521.41;4970922;28;20097;-75
2021/11/05 10:19:59;;;;;;;4.30;3.80;;;11.90;57.10;;;9.80;65.54;96521.28;4972848;28;20142;-74
2021/11/05 10:22:53;;;;;;;4.45;3.67;;;11.70;57.50;;;9.71;65.67;96519.69;4973449;28;20038;-75
2021/11/05 10:25:26;;;;;;;4.35;3.80;;;11.80;57.90;;;9.74;66.46;96521.19;4989548;28;20038;-69